KPOF/POF METAR and TAF weather

Enter ICAO airport designator
Station Type Date Time Source
KPOF METAR 2022/06/27 16:53 UTC NOAA

KPOF 271653Z AUTO 01010KT 10SM CLR 26/11 A3026 RMK AO2 SLP243 T02610111


Station Type Date Time Source
KPOF Decoded METAR 2022/06/27 16:53 UTC NOAA

POPLAR BLUFF MUN AIRPORT, MO, United States (KPOF) 36-46N 090-19W 100M
Jun 27, 2022 - 12:53 PM EDT / 2022.06.27 1653 UTC
Wind: from the N (010 degrees) at 12 MPH (10 KT):0
Visibility: 10 mile(s):0
Sky conditions: clear
Temperature: 79.0 F (26.1 C)
Dew Point: 52.0 F (11.1 C)
Relative Humidity: 39%
Pressure (altimeter): 30.26 in. Hg (1024 hPa)
ob: KPOF 271653Z AUTO 01010KT 10SM CLR 26/11 A3026 RMK AO2 SLP243 T02610111
cycle: 17

Station Type Date Time Source
KPOF TAF UTC NOAA

Error!

Example: see airport list